Terminal Aerodrome Forecast
Issued by NWS Sterling, VA

Current Version | Previous Version | Graphics & Text | Print | Product List | Glossary On
Versions: 1 2 3 4 5 6 7 8 9 10 11 12 13 14 15 16 17 18 19 20 21 22 23 24 25 26
000
FTUS41 KLWX 221120
TAFDCA
TAF
KDCA 221120Z 2212/2312 35005KT 3SM -DZ BR OVC008
     FM221400 01006KT 3SM -RA BR OVC008
     FM222200 36005KT 3SM -SHRA OVC025
     FM230400 33005KT 3SM BR OVC020=

USA.gov is the U.S. government's official web portal to all federal, state and local government web resources and services.